createdAt,value
2019-01-27T00:00:06.380Z,983.16
2019-01-27T00:01:06.407Z,983.03
2019-01-27T00:02:06.434Z,983.12
2019-01-27T00:03:06.462Z,983.10
2019-01-27T00:04:06.495Z,983.08
2019-01-27T00:05:06.516Z,983.00
2019-01-27T00:06:06.541Z,983.00
2019-01-27T00:07:06.571Z,983.00
2019-01-27T00:08:13.300Z,982.91
2019-01-27T00:09:06.628Z,982.86
2019-01-27T00:10:06.650Z,982.87
2019-01-27T00:11:06.677Z,982.84
2019-01-27T00:12:06.704Z,982.77
2019-01-27T00:13:06.731Z,982.72
2019-01-27T00:14:06.759Z,982.64
2019-01-27T00:15:06.785Z,982.52
2019-01-27T00:16:06.813Z,982.57
2019-01-27T00:17:06.844Z,982.58
2019-01-27T00:18:06.867Z,982.66
2019-01-27T00:19:06.895Z,982.60
2019-01-27T00:20:06.919Z,982.60
2019-01-27T00:21:06.947Z,982.55
2019-01-27T00:22:06.977Z,982.52
2019-01-27T00:23:07.004Z,982.57
2019-01-27T00:24:07.027Z,982.54
2019-01-27T00:25:07.055Z,982.54
2019-01-27T00:26:07.078Z,982.53
2019-01-27T00:27:07.105Z,982.54
2019-01-27T00:28:07.133Z,982.44
2019-01-27T00:29:07.162Z,982.49
2019-01-27T00:30:07.187Z,982.46
2019-01-27T00:31:07.213Z,982.41
2019-01-27T00:32:07.239Z,982.46
2019-01-27T00:33:07.268Z,982.38
2019-01-27T00:34:07.290Z,982.38
2019-01-27T00:35:07.319Z,982.38
2019-01-27T00:36:07.349Z,982.33
2019-01-27T00:37:07.373Z,982.30
2019-01-27T00:38:07.399Z,982.28
2019-01-27T00:39:07.432Z,982.23
2019-01-27T00:40:07.453Z,982.31
2019-01-27T00:41:07.480Z,982.21
2019-01-27T00:42:07.506Z,982.21
2019-01-27T00:43:07.533Z,982.17
2019-01-27T00:44:07.560Z,982.10
2019-01-27T00:45:07.589Z,982.07
2019-01-27T00:46:07.613Z,982.06
2019-01-27T00:47:07.644Z,982.13
2019-01-27T00:48:07.667Z,982.14
2019-01-27T00:49:07.696Z,982.04
2019-01-27T00:50:07.722Z,981.98
2019-01-27T00:51:07.748Z,981.97
2019-01-27T00:52:07.777Z,981.95
2019-01-27T00:53:07.803Z,981.82
2019-01-27T00:54:07.828Z,981.89
2019-01-27T00:55:07.854Z,981.91
2019-01-27T00:56:07.883Z,981.83
2019-01-27T00:57:07.912Z,981.83
2019-01-27T00:58:07.936Z,981.75
2019-01-27T00:59:07.963Z,981.82
2019-01-27T01:00:07.990Z,981.78
2019-01-27T01:01:08.017Z,981.70
2019-01-27T01:02:08.046Z,981.67
2019-01-27T01:03:08.071Z,981.66
2019-01-27T01:04:08.099Z,981.64
2019-01-27T01:05:08.132Z,981.65
2019-01-27T01:06:08.152Z,981.73
2019-01-27T01:07:08.178Z,981.63
2019-01-27T01:08:08.206Z,981.63
2019-01-27T01:09:08.233Z,981.56
2019-01-27T01:10:08.258Z,981.59
2019-01-27T01:11:08.286Z,981.56
2019-01-27T01:12:08.312Z,981.47
2019-01-27T01:13:08.341Z,981.45
2019-01-27T01:14:08.367Z,981.43
2019-01-27T01:15:08.393Z,981.44
2019-01-27T01:16:08.421Z,981.31
2019-01-27T01:17:08.448Z,981.38
2019-01-27T01:18:08.475Z,981.40
2019-01-27T01:19:08.500Z,981.36
2019-01-27T01:20:08.527Z,981.38
2019-01-27T01:21:08.555Z,981.32
2019-01-27T01:22:08.581Z,981.29
2019-01-27T01:23:08.608Z,981.32
2019-01-27T01:24:08.636Z,981.28
2019-01-27T01:25:08.662Z,981.35
2019-01-27T01:26:08.687Z,981.37
2019-01-27T01:27:08.715Z,981.37
2019-01-27T01:28:08.741Z,981.31
2019-01-27T01:29:08.770Z,981.33
2019-01-27T01:30:08.796Z,981.26
2019-01-27T01:31:08.822Z,981.35
2019-01-27T01:32:08.850Z,981.41
2019-01-27T01:33:08.876Z,981.31
2019-01-27T01:34:08.903Z,981.45
2019-01-27T01:35:08.929Z,981.32
2019-01-27T01:36:08.956Z,981.22
2019-01-27T01:37:08.985Z,981.14
2019-01-27T01:38:09.012Z,981.14
2019-01-27T01:39:09.037Z,981.15
2019-01-27T01:40:09.065Z,981.22
2019-01-27T01:41:09.092Z,981.06
2019-01-27T01:42:09.119Z,981.10
2019-01-27T01:43:09.145Z,981.19
2019-01-27T01:44:09.172Z,981.00
2019-01-27T01:45:09.198Z,980.98
2019-01-27T01:46:09.224Z,981.03
2019-01-27T01:47:09.255Z,981.07
2019-01-27T01:48:09.278Z,981.08
2019-01-27T01:49:09.307Z,981.02
2019-01-27T01:50:09.335Z,980.88
2019-01-27T01:51:09.360Z,981.02
2019-01-27T01:52:09.388Z,980.90
2019-01-27T01:53:09.414Z,980.86
2019-01-27T01:54:09.440Z,980.90
2019-01-27T01:55:09.467Z,980.81
2019-01-27T01:56:09.494Z,980.82
2019-01-27T01:57:09.519Z,980.98
2019-01-27T01:58:09.546Z,980.79
2019-01-27T01:59:09.574Z,980.76
2019-01-27T02:00:09.601Z,980.71
2019-01-27T02:01:09.633Z,980.68
2019-01-27T02:02:09.654Z,980.72
2019-01-27T02:03:09.682Z,980.73
2019-01-27T02:04:09.708Z,980.72
2019-01-27T02:05:09.737Z,980.68
2019-01-27T02:06:09.762Z,980.70
2019-01-27T02:07:09.789Z,980.61
2019-01-27T02:08:09.817Z,980.59
2019-01-27T02:09:09.843Z,980.64
2019-01-27T02:10:09.868Z,980.50
2019-01-27T02:11:09.898Z,980.58
2019-01-27T02:12:09.923Z,980.67
2019-01-27T02:13:09.949Z,980.56
2019-01-27T02:14:09.974Z,980.48
2019-01-27T02:15:10.002Z,980.46
2019-01-27T02:16:10.032Z,980.40
2019-01-27T02:17:10.102Z,980.35
2019-01-27T02:18:10.083Z,980.42
2019-01-27T02:19:10.110Z,980.33
2019-01-27T02:20:10.137Z,980.27
2019-01-27T02:21:10.162Z,980.22
2019-01-27T02:22:10.190Z,980.14
2019-01-27T02:23:10.217Z,980.20
2019-01-27T02:24:10.244Z,980.16
2019-01-27T02:25:10.271Z,980.20
2019-01-27T02:26:10.298Z,980.18
2019-01-27T02:27:10.325Z,980.16
2019-01-27T02:28:10.353Z,980.17
2019-01-27T02:29:10.378Z,980.14
2019-01-27T02:30:10.480Z,980.12
2019-01-27T02:31:10.431Z,980.08
2019-01-27T02:32:10.459Z,980.03
2019-01-27T02:33:10.484Z,980.07
2019-01-27T02:34:10.511Z,980.01
2019-01-27T02:35:10.540Z,980.06
2019-01-27T02:36:10.565Z,979.99
2019-01-27T02:37:10.594Z,980.01
2019-01-27T02:38:10.619Z,979.96
2019-01-27T02:39:10.651Z,979.89
2019-01-27T02:40:10.680Z,979.87
2019-01-27T02:41:10.701Z,979.89
2019-01-27T02:42:10.727Z,979.92
2019-01-27T02:43:10.761Z,979.85
2019-01-27T02:44:10.783Z,979.78
2019-01-27T02:45:10.809Z,979.78
2019-01-27T02:46:10.838Z,979.77
2019-01-27T02:47:10.862Z,979.70
2019-01-27T02:48:10.888Z,979.63
2019-01-27T02:49:10.915Z,979.64
2019-01-27T02:50:10.942Z,979.68
2019-01-27T02:51:10.968Z,979.65
2019-01-27T02:52:10.997Z,979.65
2019-01-27T02:53:11.023Z,979.64
2019-01-27T02:54:11.050Z,979.56
2019-01-27T02:55:11.077Z,979.53
2019-01-27T02:56:11.105Z,979.46
2019-01-27T02:57:11.135Z,979.61
2019-01-27T02:58:11.159Z,979.49
2019-01-27T02:59:11.186Z,979.56
2019-01-27T03:00:11.214Z,979.54
2019-01-27T03:01:14.433Z,979.50
2019-01-27T03:02:11.267Z,979.40
2019-01-27T03:03:11.292Z,979.44
2019-01-27T03:04:11.321Z,979.41
2019-01-27T03:05:11.347Z,979.27
2019-01-27T03:06:11.379Z,979.39
2019-01-27T03:07:11.401Z,979.28
2019-01-27T03:08:11.427Z,979.28
2019-01-27T03:09:11.457Z,979.37
2019-01-27T03:10:11.480Z,979.33
2019-01-27T03:11:11.508Z,979.33
2019-01-27T03:12:11.536Z,979.29
2019-01-27T03:13:11.565Z,979.35
2019-01-27T03:14:11.590Z,979.33
2019-01-27T03:15:11.615Z,979.24
2019-01-27T03:16:11.644Z,979.19
2019-01-27T03:17:11.671Z,979.28
2019-01-27T03:18:11.698Z,979.32
2019-01-27T03:19:11.724Z,979.18
2019-01-27T03:20:11.752Z,979.15
2019-01-27T03:21:11.779Z,979.14
2019-01-27T03:22:11.804Z,979.13
2019-01-27T03:23:11.834Z,979.08
2019-01-27T03:24:11.861Z,979.08
2019-01-27T03:25:11.890Z,979.02
2019-01-27T03:26:11.913Z,979.04
2019-01-27T03:27:11.940Z,978.97
2019-01-27T03:28:11.970Z,978.96
2019-01-27T03:29:11.995Z,978.92
2019-01-27T03:30:12.022Z,978.90
2019-01-27T03:31:12.063Z,978.88
2019-01-27T03:32:12.077Z,978.87
2019-01-27T03:33:12.104Z,978.89
2019-01-27T03:34:12.137Z,978.88
2019-01-27T03:35:12.158Z,978.79
2019-01-27T03:36:12.186Z,978.89
2019-01-27T03:37:12.212Z,978.83
2019-01-27T03:38:12.238Z,978.75
2019-01-27T03:39:12.264Z,978.71
2019-01-27T03:40:12.292Z,978.83
2019-01-27T03:41:12.322Z,978.77
2019-01-27T03:42:12.345Z,978.71
2019-01-27T03:43:12.407Z,978.71
2019-01-27T03:44:12.399Z,978.69
2019-01-27T03:45:12.428Z,978.62
2019-01-27T03:46:12.453Z,978.58
2019-01-27T03:47:12.483Z,978.52
2019-01-27T03:48:12.508Z,978.48
2019-01-27T03:49:12.536Z,978.55
2019-01-27T03:50:12.564Z,978.44
2019-01-27T03:51:12.588Z,978.21
2019-01-27T03:52:12.616Z,978.32
2019-01-27T03:53:12.646Z,978.42
2019-01-27T03:54:12.675Z,978.38
2019-01-27T03:55:12.697Z,978.39
2019-01-27T03:56:12.724Z,978.36
2019-01-27T03:57:12.750Z,978.25
2019-01-27T03:58:12.787Z,978.20
2019-01-27T03:59:12.954Z,978.13
2019-01-27T04:00:12.834Z,978.14
2019-01-27T04:01:12.859Z,978.12
2019-01-27T04:02:12.885Z,978.13
2019-01-27T04:03:12.913Z,978.19
2019-01-27T04:04:12.941Z,978.12
2019-01-27T04:05:12.969Z,978.13
2019-01-27T04:06:12.997Z,978.06
2019-01-27T04:07:13.021Z,978.05
2019-01-27T04:08:13.050Z,978.06
2019-01-27T04:09:13.075Z,978.02
2019-01-27T04:10:13.102Z,977.97
2019-01-27T04:11:13.133Z,978.06
2019-01-27T04:12:13.157Z,977.91
2019-01-27T04:13:13.184Z,977.97
2019-01-27T04:14:13.212Z,977.88
2019-01-27T04:15:13.237Z,977.89
2019-01-27T04:16:13.264Z,978.01
2019-01-27T04:17:13.292Z,977.86
2019-01-27T04:18:13.320Z,977.90
2019-01-27T04:19:13.346Z,977.82
2019-01-27T04:20:13.383Z,977.80
2019-01-27T04:21:13.402Z,977.78
2019-01-27T04:22:13.425Z,977.86
2019-01-27T04:23:13.456Z,977.90
2019-01-27T04:24:13.482Z,977.75
2019-01-27T04:25:13.508Z,977.76
2019-01-27T04:26:13.534Z,977.66
2019-01-27T04:27:13.562Z,977.72
2019-01-27T04:28:13.594Z,977.56
2019-01-27T04:29:13.618Z,977.55
2019-01-27T04:30:13.644Z,977.64
2019-01-27T04:31:13.670Z,977.56
2019-01-27T04:32:13.699Z,977.51
2019-01-27T04:33:13.726Z,977.56
2019-01-27T04:34:13.753Z,977.50
2019-01-27T04:35:13.780Z,977.51
2019-01-27T04:36:13.807Z,977.50
2019-01-27T04:37:13.835Z,977.44
2019-01-27T04:38:13.861Z,977.38
2019-01-27T04:39:13.888Z,977.36
2019-01-27T04:40:13.916Z,977.39
2019-01-27T04:41:13.942Z,977.34
2019-01-27T04:42:13.968Z,977.31
2019-01-27T04:43:13.998Z,977.25
2019-01-27T04:44:14.027Z,977.32
2019-01-27T04:45:14.050Z,977.29
2019-01-27T04:46:14.079Z,977.20
2019-01-27T04:47:14.105Z,977.27
2019-01-27T04:48:14.133Z,977.35
2019-01-27T04:49:14.165Z,977.32
2019-01-27T04:50:14.187Z,977.26
2019-01-27T04:51:14.214Z,977.29
2019-01-27T04:52:14.242Z,977.26
2019-01-27T04:53:14.269Z,977.17
2019-01-27T04:54:14.298Z,977.22
2019-01-27T04:55:14.324Z,977.26
2019-01-27T04:56:14.354Z,977.22
2019-01-27T04:57:14.378Z,977.13
2019-01-27T04:58:14.406Z,977.20
2019-01-27T04:59:14.432Z,977.18
2019-01-27T05:00:14.461Z,977.14
2019-01-27T05:01:14.489Z,977.05
2019-01-27T05:02:14.565Z,977.14
2019-01-27T05:03:14.541Z,977.04
2019-01-27T05:04:16.381Z,977.04
2019-01-27T05:05:14.596Z,976.97
2019-01-27T05:06:14.627Z,976.98
2019-01-27T05:07:14.650Z,976.92
2019-01-27T05:08:14.679Z,977.00
2019-01-27T05:09:14.708Z,976.86
2019-01-27T05:10:14.733Z,976.95
2019-01-27T05:11:14.763Z,976.97
2019-01-27T05:12:14.788Z,976.91
2019-01-27T05:13:14.821Z,976.92
2019-01-27T05:14:14.842Z,976.87
2019-01-27T05:15:14.870Z,976.92
2019-01-27T05:16:14.897Z,976.96
2019-01-27T05:17:14.923Z,976.86
2019-01-27T05:18:14.953Z,976.90
2019-01-27T05:19:14.978Z,976.89
2019-01-27T05:20:15.007Z,976.77
2019-01-27T05:21:15.070Z,976.76
2019-01-27T05:22:15.060Z,976.84
2019-01-27T05:23:15.087Z,976.80
2019-01-27T05:24:15.123Z,976.83
2019-01-27T05:25:15.144Z,976.87
2019-01-27T05:26:15.170Z,976.84
2019-01-27T05:27:15.198Z,976.85
2019-01-27T05:28:15.225Z,976.76
2019-01-27T05:29:15.252Z,976.72
2019-01-27T05:30:15.279Z,976.73
2019-01-27T05:31:15.307Z,976.78
2019-01-27T05:32:15.334Z,976.67
2019-01-27T05:33:15.362Z,976.73
2019-01-27T05:34:15.388Z,976.75
2019-01-27T05:35:15.469Z,976.76
2019-01-27T05:36:15.442Z,976.77
2019-01-27T05:37:15.471Z,976.61
2019-01-27T05:38:15.497Z,976.72
2019-01-27T05:39:15.530Z,976.67
2019-01-27T05:40:15.553Z,976.68
2019-01-27T05:41:15.580Z,976.71
2019-01-27T05:42:15.607Z,976.62
2019-01-27T05:43:15.637Z,976.76
2019-01-27T05:44:15.662Z,976.65
2019-01-27T05:45:15.690Z,976.57
2019-01-27T05:46:15.717Z,976.65
2019-01-27T05:47:15.745Z,976.58
2019-01-27T05:48:15.772Z,976.66
2019-01-27T05:49:15.801Z,976.57
2019-01-27T05:50:15.828Z,976.61
2019-01-27T05:51:15.853Z,976.59
2019-01-27T05:52:15.882Z,976.60
2019-01-27T05:53:15.916Z,976.54
2019-01-27T05:54:15.937Z,976.60
2019-01-27T05:55:15.969Z,976.56
2019-01-27T05:56:15.990Z,976.55
2019-01-27T05:57:16.033Z,976.57
2019-01-27T05:58:16.046Z,976.48
2019-01-27T05:59:16.073Z,976.52
2019-01-27T06:00:16.100Z,976.50
2019-01-27T06:01:16.128Z,976.52
2019-01-27T06:02:16.154Z,976.48
2019-01-27T06:03:16.182Z,976.43
2019-01-27T06:04:16.469Z,976.40
2019-01-27T06:05:16.236Z,976.43
2019-01-27T06:06:16.263Z,976.43
2019-01-27T06:07:16.293Z,976.31
2019-01-27T06:08:16.318Z,976.35
2019-01-27T06:09:16.346Z,976.39
2019-01-27T06:10:16.373Z,976.30
2019-01-27T06:11:16.401Z,976.43
2019-01-27T06:12:16.428Z,976.39
2019-01-27T06:13:16.457Z,976.41
2019-01-27T06:14:16.482Z,976.30
2019-01-27T06:15:16.511Z,976.47
2019-01-27T06:16:16.537Z,976.33
2019-01-27T06:17:16.565Z,976.45
2019-01-27T06:18:16.592Z,976.32
2019-01-27T06:19:16.619Z,976.30
2019-01-27T06:20:16.647Z,976.32
2019-01-27T06:21:16.674Z,976.40
2019-01-27T06:22:16.699Z,976.38
2019-01-27T06:23:16.728Z,976.29
2019-01-27T06:24:16.758Z,976.30
2019-01-27T06:25:16.784Z,976.26
2019-01-27T06:26:16.810Z,976.25
2019-01-27T06:27:16.837Z,976.36
2019-01-27T06:28:16.914Z,976.37
2019-01-27T06:29:16.892Z,976.19
2019-01-27T06:30:16.920Z,976.26
2019-01-27T06:31:16.946Z,976.26
2019-01-27T06:32:16.974Z,976.29
2019-01-27T06:33:17.004Z,976.17
2019-01-27T06:34:17.028Z,976.20
2019-01-27T06:35:17.056Z,976.22
2019-01-27T06:36:17.084Z,976.17
2019-01-27T06:37:24.538Z,976.08
2019-01-27T06:38:17.137Z,976.12
2019-01-27T06:39:17.167Z,976.15
2019-01-27T06:40:17.193Z,976.17
2019-01-27T06:41:17.229Z,976.01
2019-01-27T06:42:17.247Z,976.06
2019-01-27T06:43:17.278Z,976.10
2019-01-27T06:44:17.304Z,976.04
2019-01-27T06:45:17.329Z,975.93
2019-01-27T06:46:17.356Z,975.91
2019-01-27T06:47:17.382Z,976.04
2019-01-27T06:48:17.412Z,975.93
2019-01-27T06:49:17.438Z,975.87
2019-01-27T06:50:17.465Z,975.83
2019-01-27T06:51:17.494Z,975.88
2019-01-27T06:52:17.521Z,975.84
2019-01-27T06:53:17.549Z,975.81
2019-01-27T06:54:17.575Z,975.69
2019-01-27T06:55:17.606Z,975.74
2019-01-27T06:56:17.629Z,975.82
2019-01-27T06:57:17.660Z,975.81
2019-01-27T06:58:17.687Z,975.78
2019-01-27T06:59:17.712Z,975.63
2019-01-27T07:00:17.738Z,975.76
2019-01-27T07:01:17.767Z,975.64
2019-01-27T07:02:17.794Z,975.65
2019-01-27T07:03:17.821Z,975.76
2019-01-27T07:04:17.849Z,975.71
2019-01-27T07:05:17.876Z,975.62
2019-01-27T07:06:17.902Z,975.71
2019-01-27T07:07:17.930Z,975.69
2019-01-27T07:08:17.959Z,975.57
2019-01-27T07:09:17.985Z,975.60
2019-01-27T07:10:18.012Z,975.59
2019-01-27T07:11:18.041Z,975.64
2019-01-27T07:12:18.067Z,975.58
2019-01-27T07:13:18.094Z,975.68
2019-01-27T07:14:18.121Z,975.51
2019-01-27T07:15:18.149Z,975.57
2019-01-27T07:16:18.177Z,975.58
2019-01-27T07:17:18.203Z,975.51
2019-01-27T07:18:18.229Z,975.47
2019-01-27T07:19:18.258Z,975.50
2019-01-27T07:20:18.286Z,975.50
2019-01-27T07:21:18.313Z,975.48
2019-01-27T07:22:18.339Z,975.45
2019-01-27T07:23:18.367Z,975.47
2019-01-27T07:24:18.396Z,975.56
2019-01-27T07:25:18.421Z,975.49
2019-01-27T07:26:18.448Z,975.43
2019-01-27T07:27:18.476Z,975.44
2019-01-27T07:28:18.507Z,975.46
2019-01-27T07:29:18.530Z,975.44
2019-01-27T07:30:18.557Z,975.47
2019-01-27T07:31:18.935Z,975.43
2019-01-27T07:32:18.613Z,975.26
2019-01-27T07:33:18.640Z,975.35
2019-01-27T07:34:18.667Z,975.38
2019-01-27T07:35:18.699Z,975.34
2019-01-27T07:36:18.723Z,975.27
2019-01-27T07:37:18.751Z,975.26
2019-01-27T07:38:18.776Z,975.35
2019-01-27T07:39:18.804Z,975.35
2019-01-27T07:40:18.831Z,975.25
2019-01-27T07:41:18.859Z,975.34
2019-01-27T07:42:18.889Z,975.32
2019-01-27T07:43:18.914Z,975.24
2019-01-27T07:44:18.942Z,975.24
2019-01-27T07:45:18.970Z,975.20
2019-01-27T07:46:18.995Z,975.15
2019-01-27T07:47:19.024Z,975.00
2019-01-27T07:48:19.052Z,975.07
2019-01-27T07:49:19.078Z,975.08
2019-01-27T07:50:19.107Z,974.94
2019-01-27T07:51:19.134Z,975.07
2019-01-27T07:52:19.162Z,974.90
2019-01-27T07:53:19.189Z,974.98
2019-01-27T07:54:19.217Z,974.89
2019-01-27T07:55:19.245Z,974.86
2019-01-27T07:56:19.272Z,974.88
2019-01-27T07:57:19.300Z,974.99
2019-01-27T07:58:19.327Z,974.90
2019-01-27T07:59:19.355Z,974.99
2019-01-27T08:00:19.384Z,974.91
2019-01-27T08:01:19.413Z,974.95
2019-01-27T08:02:19.439Z,974.85
2019-01-27T08:03:19.468Z,974.69
2019-01-27T08:04:19.495Z,974.67
2019-01-27T08:05:19.524Z,974.78
2019-01-27T08:06:19.552Z,974.76
2019-01-27T08:07:19.582Z,974.90
2019-01-27T08:08:19.614Z,974.97
2019-01-27T08:09:19.644Z,974.87
2019-01-27T08:10:19.667Z,974.67
2019-01-27T08:11:19.697Z,974.70
2019-01-27T08:12:19.725Z,974.62
2019-01-27T08:13:19.756Z,974.79
2019-01-27T08:14:19.782Z,974.69
2019-01-27T08:15:19.812Z,974.81
2019-01-27T08:16:19.841Z,974.77
2019-01-27T08:17:19.871Z,974.81
2019-01-27T08:18:19.900Z,974.84
2019-01-27T08:19:19.929Z,974.79
2019-01-27T08:20:19.957Z,974.87
2019-01-27T08:21:19.987Z,974.72
2019-01-27T08:22:20.015Z,974.76
2019-01-27T08:23:20.044Z,974.82
2019-01-27T08:24:20.073Z,974.78
2019-01-27T08:25:20.102Z,974.90
2019-01-27T08:26:20.130Z,974.82
2019-01-27T08:27:20.159Z,974.85
2019-01-27T08:28:20.187Z,974.84
2019-01-27T08:29:20.216Z,974.81
2019-01-27T08:30:20.244Z,974.85
2019-01-27T08:31:20.274Z,974.85
2019-01-27T08:32:20.303Z,974.85
2019-01-27T08:33:20.330Z,974.80
2019-01-27T08:34:20.358Z,974.73
2019-01-27T08:35:20.387Z,974.82
2019-01-27T08:36:20.417Z,974.97
2019-01-27T08:37:20.444Z,974.86
2019-01-27T08:38:20.475Z,974.86
2019-01-27T08:39:20.500Z,974.81
2019-01-27T08:40:20.530Z,974.78
2019-01-27T08:41:20.558Z,974.74
2019-01-27T08:42:20.588Z,974.67
2019-01-27T08:43:20.615Z,974.75
2019-01-27T08:44:20.645Z,974.80
2019-01-27T08:45:20.673Z,974.74
2019-01-27T08:46:20.700Z,974.73
2019-01-27T08:47:20.729Z,974.73
2019-01-27T08:48:20.761Z,974.72
2019-01-27T08:49:20.785Z,974.70
2019-01-27T08:50:20.816Z,974.62
2019-01-27T08:51:20.841Z,974.66
2019-01-27T08:52:20.869Z,974.69
2019-01-27T08:53:20.902Z,974.60
2019-01-27T08:54:20.926Z,974.71
2019-01-27T08:55:20.955Z,974.58
2019-01-27T08:56:20.983Z,974.62
2019-01-27T08:57:21.012Z,974.56
2019-01-27T08:58:21.046Z,974.67
2019-01-27T08:59:21.073Z,974.58
2019-01-27T09:00:21.098Z,974.55
2019-01-27T09:01:21.125Z,974.56
2019-01-27T09:02:21.153Z,974.48
2019-01-27T09:03:21.183Z,974.57
2019-01-27T09:04:21.211Z,974.48
2019-01-27T09:05:21.241Z,974.50
2019-01-27T09:06:21.266Z,974.53
2019-01-27T09:07:21.295Z,974.51
2019-01-27T09:08:21.323Z,974.50
2019-01-27T09:09:21.353Z,974.61
2019-01-27T09:10:21.379Z,974.51
2019-01-27T09:11:21.407Z,974.64
2019-01-27T09:12:21.437Z,974.50
2019-01-27T09:13:21.464Z,974.48
2019-01-27T09:14:21.493Z,974.51
2019-01-27T09:15:21.521Z,974.47
2019-01-27T09:16:21.549Z,974.40
2019-01-27T09:17:21.578Z,974.55
2019-01-27T09:18:21.605Z,974.36
2019-01-27T09:19:21.636Z,974.43
2019-01-27T09:20:21.662Z,974.33
2019-01-27T09:21:21.693Z,974.26
2019-01-27T09:22:21.724Z,974.37
2019-01-27T09:23:21.747Z,974.26
2019-01-27T09:24:21.777Z,974.31
2019-01-27T09:25:21.805Z,974.30
2019-01-27T09:26:21.857Z,974.29
2019-01-27T09:27:21.860Z,974.38
2019-01-27T09:28:21.889Z,974.42
2019-01-27T09:29:21.918Z,974.30
2019-01-27T09:30:21.945Z,974.28
2019-01-27T09:31:21.973Z,974.34
2019-01-27T09:32:22.003Z,974.34
2019-01-27T09:33:22.033Z,974.35
2019-01-27T09:34:22.058Z,974.39
2019-01-27T09:35:22.088Z,974.37
2019-01-27T09:36:22.117Z,974.55
2019-01-27T09:37:22.145Z,974.37
2019-01-27T09:38:22.174Z,974.49
2019-01-27T09:39:22.203Z,974.39
2019-01-27T09:40:22.231Z,974.43
2019-01-27T09:41:22.260Z,974.51
2019-01-27T09:42:22.287Z,974.32
2019-01-27T09:43:22.316Z,974.64
2019-01-27T09:44:22.346Z,974.39
2019-01-27T09:45:22.376Z,974.53
2019-01-27T09:46:22.404Z,974.79
2019-01-27T09:47:22.434Z,974.34
2019-01-27T09:48:22.463Z,974.35
2019-01-27T09:49:22.493Z,974.55
2019-01-27T09:50:22.521Z,974.53
2019-01-27T09:51:22.553Z,974.73
2019-01-27T09:52:22.583Z,974.63
2019-01-27T09:53:22.612Z,974.29
2019-01-27T09:54:22.643Z,974.36
2019-01-27T09:55:22.671Z,974.39
2019-01-27T09:56:22.702Z,974.59
2019-01-27T09:57:22.734Z,975.09
2019-01-27T09:58:22.763Z,975.26
2019-01-27T09:59:22.794Z,975.50
2019-01-27T10:00:22.825Z,974.45
2019-01-27T10:01:22.857Z,974.57
2019-01-27T10:02:22.888Z,975.52
2019-01-27T10:03:22.920Z,975.52
2019-01-27T10:04:22.955Z,975.41
2019-01-27T10:05:22.987Z,975.46
2019-01-27T10:06:23.019Z,975.49
2019-01-27T10:07:23.055Z,974.79
2019-01-27T10:08:23.089Z,974.22
2019-01-27T10:09:23.124Z,974.29
2019-01-27T10:10:23.162Z,974.31
2019-01-27T10:11:26.514Z,974.15
2019-01-27T10:12:23.228Z,974.53
2019-01-27T10:13:23.263Z,974.00
2019-01-27T10:14:23.298Z,973.85
2019-01-27T10:15:23.333Z,973.85
2019-01-27T10:16:23.369Z,973.78
2019-01-27T10:17:23.403Z,973.86
2019-01-27T10:18:24.843Z,973.81
2019-01-27T10:19:23.473Z,973.80
2019-01-27T10:20:23.507Z,973.82
2019-01-27T10:21:23.540Z,973.91
2019-01-27T10:22:23.574Z,973.89
2019-01-27T10:23:23.609Z,973.94
2019-01-27T10:24:23.642Z,973.93
2019-01-27T10:25:23.677Z,973.99
2019-01-27T10:26:23.709Z,973.95
2019-01-27T10:27:23.742Z,973.88
2019-01-27T10:28:23.773Z,973.94
2019-01-27T10:29:23.807Z,973.91
2019-01-27T10:30:23.838Z,973.87
2019-01-27T10:31:23.875Z,973.80
2019-01-27T10:32:23.905Z,973.84
2019-01-27T10:33:23.936Z,973.81
2019-01-27T10:34:23.967Z,973.81
2019-01-27T10:35:23.999Z,973.81
2019-01-27T10:36:24.034Z,973.79
2019-01-27T10:37:24.071Z,973.76
2019-01-27T10:38:24.097Z,973.77
2019-01-27T10:39:24.125Z,973.72
2019-01-27T10:40:24.161Z,973.71
2019-01-27T10:41:24.189Z,973.65
2019-01-27T10:42:24.219Z,973.77
2019-01-27T10:43:24.251Z,973.72
2019-01-27T10:44:24.282Z,973.68
2019-01-27T10:45:24.313Z,973.63
2019-01-27T10:46:24.344Z,973.64
2019-01-27T10:47:24.375Z,973.65
2019-01-27T10:48:24.407Z,973.60
2019-01-27T10:49:24.439Z,973.59
2019-01-27T10:50:24.469Z,973.69
2019-01-27T10:51:24.497Z,973.58
2019-01-27T10:52:24.613Z,973.54
2019-01-27T10:53:25.512Z,973.58
2019-01-27T10:54:24.588Z,973.51
2019-01-27T10:55:24.620Z,973.57
2019-01-27T10:56:24.653Z,973.52
2019-01-27T10:57:24.682Z,973.46
2019-01-27T10:58:24.711Z,973.45
2019-01-27T10:59:24.743Z,973.40
2019-01-27T11:00:24.777Z,973.34
2019-01-27T11:01:24.804Z,973.33
2019-01-27T11:02:24.836Z,973.37
2019-01-27T11:03:24.865Z,973.31
2019-01-27T11:04:24.895Z,973.35
2019-01-27T11:05:24.976Z,973.33
2019-01-27T11:06:24.957Z,973.24
2019-01-27T11:07:24.988Z,973.25
2019-01-27T11:08:25.018Z,973.34
2019-01-27T11:09:25.049Z,973.22
2019-01-27T11:10:25.078Z,973.23
2019-01-27T11:11:25.109Z,973.26
2019-01-27T11:12:25.138Z,973.32
2019-01-27T11:13:25.169Z,973.22
2019-01-27T11:14:25.198Z,973.29
2019-01-27T11:15:25.227Z,973.35
2019-01-27T11:16:25.260Z,973.29
2019-01-27T11:17:25.290Z,973.31
2019-01-27T11:18:25.318Z,973.27
2019-01-27T11:19:25.349Z,973.32
2019-01-27T11:20:25.417Z,973.32
2019-01-27T11:21:25.411Z,973.32
2019-01-27T11:22:25.438Z,973.22
2019-01-27T11:23:25.469Z,973.19
2019-01-27T11:24:25.499Z,973.16
2019-01-27T11:25:25.534Z,973.12
2019-01-27T11:26:25.559Z,973.11
2019-01-27T11:27:32.688Z,973.07
2019-01-27T11:28:25.620Z,973.03
2019-01-27T11:29:25.650Z,973.01
2019-01-27T11:30:25.680Z,972.96
2019-01-27T11:31:25.710Z,972.94
2019-01-27T11:32:25.743Z,973.00
2019-01-27T11:33:25.770Z,972.92
2019-01-27T11:34:25.800Z,972.95
2019-01-27T11:35:25.831Z,972.80
2019-01-27T11:36:25.860Z,972.91
2019-01-27T11:37:25.891Z,972.98
2019-01-27T11:38:25.923Z,972.93
2019-01-27T11:39:25.951Z,973.01
2019-01-27T11:40:25.983Z,973.08
2019-01-27T11:41:26.011Z,973.00
2019-01-27T11:42:26.042Z,972.94
2019-01-27T11:43:26.069Z,972.89
2019-01-27T11:44:26.101Z,972.87
2019-01-27T11:45:26.129Z,972.88
2019-01-27T11:46:26.159Z,972.84
2019-01-27T11:47:26.187Z,972.77
2019-01-27T11:48:26.219Z,972.81
2019-01-27T11:49:26.247Z,972.88
2019-01-27T11:50:26.279Z,972.83
2019-01-27T11:51:26.355Z,972.83
2019-01-27T11:52:26.336Z,972.87
2019-01-27T11:53:26.370Z,972.85
2019-01-27T11:54:26.397Z,972.95
2019-01-27T11:55:26.423Z,972.93
2019-01-27T11:56:26.453Z,972.91
2019-01-27T11:57:26.480Z,972.75
2019-01-27T11:58:26.510Z,972.81
2019-01-27T11:59:26.542Z,972.74
2019-01-27T12:00:26.569Z,972.80
2019-01-27T12:01:26.600Z,972.77
2019-01-27T12:02:26.628Z,972.71
2019-01-27T12:03:26.657Z,972.73
2019-01-27T12:04:26.689Z,972.68
2019-01-27T12:05:26.717Z,972.70
2019-01-27T12:06:26.746Z,972.69
2019-01-27T12:07:26.776Z,972.66
2019-01-27T12:08:28.034Z,972.53
2019-01-27T12:09:26.834Z,972.59
2019-01-27T12:10:26.862Z,972.54
2019-01-27T12:11:26.893Z,972.58
2019-01-27T12:12:26.922Z,972.55
2019-01-27T12:13:26.950Z,972.52
2019-01-27T12:14:26.982Z,972.50
2019-01-27T12:15:27.008Z,972.41
2019-01-27T12:16:27.039Z,972.47
2019-01-27T12:17:27.067Z,972.56
2019-01-27T12:18:27.095Z,972.56
2019-01-27T12:19:27.125Z,972.55
2019-01-27T12:20:27.154Z,972.38
2019-01-27T12:21:27.184Z,972.38
2019-01-27T12:22:27.236Z,972.36
2019-01-27T12:23:27.241Z,972.34
2019-01-27T12:24:27.272Z,972.29
2019-01-27T12:25:27.300Z,972.21
2019-01-27T12:26:27.330Z,972.25
2019-01-27T12:27:27.360Z,972.26
2019-01-27T12:28:27.389Z,972.18